sensor_id;sensor_type;location;lat;lon;timestamp;temperature;humidity
12060;DHT22;6091;51.432;6.880;2024-02-04T00:00:00;21.70;37.00
12060;DHT22;6091;51.432;6.880;2024-02-04T00:02:28;21.70;36.90
12060;DHT22;6091;51.432;6.880;2024-02-04T00:04:55;21.70;36.90
12060;DHT22;6091;51.432;6.880;2024-02-04T00:07:23;21.80;37.00
12060;DHT22;6091;51.432;6.880;2024-02-04T00:09:50;21.70;36.90
12060;DHT22;6091;51.432;6.880;2024-02-04T00:12:17;21.70;37.00
12060;DHT22;6091;51.432;6.880;2024-02-04T00:14:45;21.70;37.00
12060;DHT22;6091;51.432;6.880;2024-02-04T00:17:12;21.70;37.00
12060;DHT22;6091;51.432;6.880;2024-02-04T00:19:42;21.70;37.00
12060;DHT22;6091;51.432;6.880;2024-02-04T00:22:10;21.70;37.00
12060;DHT22;6091;51.432;6.880;2024-02-04T00:24:37;21.70;37.00
12060;DHT22;6091;51.432;6.880;2024-02-04T00:27:04;21.70;37.00
12060;DHT22;6091;51.432;6.880;2024-02-04T00:29:31;21.70;37.00
12060;DHT22;6091;51.432;6.880;2024-02-04T00:31:59;21.70;37.00
12060;DHT22;6091;51.432;6.880;2024-02-04T00:34:27;21.70;37.00
12060;DHT22;6091;51.432;6.880;2024-02-04T00:36:54;21.70;37.00
12060;DHT22;6091;51.432;6.880;2024-02-04T00:39:22;21.70;37.00
12060;DHT22;6091;51.432;6.880;2024-02-04T00:41:49;21.70;37.00
12060;DHT22;6091;51.432;6.880;2024-02-04T00:44:16;21.70;37.00
12060;DHT22;6091;51.432;6.880;2024-02-04T00:46:44;21.70;37.00
12060;DHT22;6091;51.432;6.880;2024-02-04T00:49:11;21.70;37.00
12060;DHT22;6091;51.432;6.880;2024-02-04T00:51:38;21.70;37.00
12060;DHT22;6091;51.432;6.880;2024-02-04T00:54:06;21.70;37.00
12060;DHT22;6091;51.432;6.880;2024-02-04T00:56:35;21.70;37.00
12060;DHT22;6091;51.432;6.880;2024-02-04T00:59:04;21.70;37.00
12060;DHT22;6091;51.432;6.880;2024-02-04T01:01:31;21.70;37.00
12060;DHT22;6091;51.432;6.880;2024-02-04T01:03:59;21.70;37.00
12060;DHT22;6091;51.432;6.880;2024-02-04T01:06:26;21.70;37.00
12060;DHT22;6091;51.432;6.880;2024-02-04T01:08:58;21.70;37.00
12060;DHT22;6091;51.432;6.880;2024-02-04T01:11:25;21.70;37.00
12060;DHT22;6091;51.432;6.880;2024-02-04T01:13:52;21.60;37.00
12060;DHT22;6091;51.432;6.880;2024-02-04T01:16:19;21.70;37.00
12060;DHT22;6091;51.432;6.880;2024-02-04T01:18:47;21.70;37.00
12060;DHT22;6091;51.432;6.880;2024-02-04T01:21:14;21.70;37.60
12060;DHT22;6091;51.432;6.880;2024-02-04T01:23:41;21.70;37.00
12060;DHT22;6091;51.432;6.880;2024-02-04T01:26:08;21.70;37.10
12060;DHT22;6091;51.432;6.880;2024-02-04T01:28:37;21.70;37.10
12060;DHT22;6091;51.432;6.880;2024-02-04T01:31:05;21.60;37.00
12060;DHT22;6091;51.432;6.880;2024-02-04T01:33:37;21.70;37.00
12060;DHT22;6091;51.432;6.880;2024-02-04T01:36:05;21.70;37.10
12060;DHT22;6091;51.432;6.880;2024-02-04T01:38:32;21.60;37.00
12060;DHT22;6091;51.432;6.880;2024-02-04T01:41:00;21.60;37.00
12060;DHT22;6091;51.432;6.880;2024-02-04T01:43:27;21.70;37.10
12060;DHT22;6091;51.432;6.880;2024-02-04T01:45:54;21.70;37.00
12060;DHT22;6091;51.432;6.880;2024-02-04T01:48:22;21.60;37.00
12060;DHT22;6091;51.432;6.880;2024-02-04T01:50:50;21.60;37.10
12060;DHT22;6091;51.432;6.880;2024-02-04T01:53:22;21.60;37.00
12060;DHT22;6091;51.432;6.880;2024-02-04T01:55:51;21.70;37.10
12060;DHT22;6091;51.432;6.880;2024-02-04T01:58:18;21.60;37.00
12060;DHT22;6091;51.432;6.880;2024-02-04T02:00:45;21.60;37.00
12060;DHT22;6091;51.432;6.880;2024-02-04T02:03:14;21.60;37.00
12060;DHT22;6091;51.432;6.880;2024-02-04T02:05:43;21.60;37.00
12060;DHT22;6091;51.432;6.880;2024-02-04T02:08:10;21.60;37.10
12060;DHT22;6091;51.432;6.880;2024-02-04T02:10:38;21.60;37.00
12060;DHT22;6091;51.432;6.880;2024-02-04T02:13:22;21.60;37.00
12060;DHT22;6091;51.432;6.880;2024-02-04T02:15:56;21.60;37.10
12060;DHT22;6091;51.432;6.880;2024-02-04T02:18:39;21.60;37.00
12060;DHT22;6091;51.432;6.880;2024-02-04T02:21:38;21.60;37.70
12060;DHT22;6091;51.432;6.880;2024-02-04T02:26:50;21.60;37.00
12060;DHT22;6091;51.432;6.880;2024-02-04T02:29:18;21.60;37.00
12060;DHT22;6091;51.432;6.880;2024-02-04T02:31:45;21.60;37.00
12060;DHT22;6091;51.432;6.880;2024-02-04T02:34:16;21.60;37.00
12060;DHT22;6091;51.432;6.880;2024-02-04T02:37:03;21.60;37.00
12060;DHT22;6091;51.432;6.880;2024-02-04T02:42:36;21.60;37.00
12060;DHT22;6091;51.432;6.880;2024-02-04T02:45:06;21.60;37.00
12060;DHT22;6091;51.432;6.880;2024-02-04T02:47:35;21.60;37.00
12060;DHT22;6091;51.432;6.880;2024-02-04T02:50:07;21.60;37.00
12060;DHT22;6091;51.432;6.880;2024-02-04T02:52:35;21.60;37.70
12060;DHT22;6091;51.432;6.880;2024-02-04T02:55:03;21.60;37.20
12060;DHT22;6091;51.432;6.880;2024-02-04T02:57:31;21.60;37.00
12060;DHT22;6091;51.432;6.880;2024-02-04T02:59:58;21.60;37.10
12060;DHT22;6091;51.432;6.880;2024-02-04T03:02:26;21.60;37.00
12060;DHT22;6091;51.432;6.880;2024-02-04T03:04:53;21.60;37.10
12060;DHT22;6091;51.432;6.880;2024-02-04T03:07:21;21.60;37.10
12060;DHT22;6091;51.432;6.880;2024-02-04T03:09:52;21.60;37.10
12060;DHT22;6091;51.432;6.880;2024-02-04T03:12:21;21.60;37.10
12060;DHT22;6091;51.432;6.880;2024-02-04T03:14:50;21.50;37.00
12060;DHT22;6091;51.432;6.880;2024-02-04T03:17:17;21.50;37.00
12060;DHT22;6091;51.432;6.880;2024-02-04T03:19:49;21.50;37.00
12060;DHT22;6091;51.432;6.880;2024-02-04T03:22:18;21.50;37.00
12060;DHT22;6091;51.432;6.880;2024-02-04T03:24:47;21.50;37.00
12060;DHT22;6091;51.432;6.880;2024-02-04T03:27:17;21.50;37.00
12060;DHT22;6091;51.432;6.880;2024-02-04T03:29:47;21.60;37.10
12060;DHT22;6091;51.432;6.880;2024-02-04T03:32:14;21.50;37.00
12060;DHT22;6091;51.432;6.880;2024-02-04T03:34:42;21.50;37.00
12060;DHT22;6091;51.432;6.880;2024-02-04T03:37:09;21.60;37.10
12060;DHT22;6091;51.432;6.880;2024-02-04T03:39:37;21.60;37.10
12060;DHT22;6091;51.432;6.880;2024-02-04T03:42:04;21.60;37.10
12060;DHT22;6091;51.432;6.880;2024-02-04T03:44:31;21.60;37.10
12060;DHT22;6091;51.432;6.880;2024-02-04T03:46:58;21.60;37.10
12060;DHT22;6091;51.432;6.880;2024-02-04T03:49:25;21.50;37.00
12060;DHT22;6091;51.432;6.880;2024-02-04T03:51:53;21.60;37.10
12060;DHT22;6091;51.432;6.880;2024-02-04T03:54:21;21.60;37.10
12060;DHT22;6091;51.432;6.880;2024-02-04T03:56:48;21.60;37.10
12060;DHT22;6091;51.432;6.880;2024-02-04T03:59:15;21.60;37.10
12060;DHT22;6091;51.432;6.880;2024-02-04T04:01:50;21.50;37.00
12060;DHT22;6091;51.432;6.880;2024-02-04T04:04:20;21.60;37.70
12060;DHT22;6091;51.432;6.880;2024-02-04T04:06:48;21.60;37.10
12060;DHT22;6091;51.432;6.880;2024-02-04T04:09:16;21.50;37.00
12060;DHT22;6091;51.432;6.880;2024-02-04T04:11:44;21.50;37.00
12060;DHT22;6091;51.432;6.880;2024-02-04T04:14:12;21.50;37.20
12060;DHT22;6091;51.432;6.880;2024-02-04T04:16:39;21.60;37.10
12060;DHT22;6091;51.432;6.880;2024-02-04T04:19:06;21.60;37.10
12060;DHT22;6091;51.432;6.880;2024-02-04T04:21:33;21.50;37.00
12060;DHT22;6091;51.432;6.880;2024-02-04T04:24:02;21.50;37.00
12060;DHT22;6091;51.432;6.880;2024-02-04T04:26:30;21.50;37.00
12060;DHT22;6091;51.432;6.880;2024-02-04T04:28:58;21.50;37.00
12060;DHT22;6091;51.432;6.880;2024-02-04T04:31:25;21.50;37.00
12060;DHT22;6091;51.432;6.880;2024-02-04T04:33:52;21.50;37.00
12060;DHT22;6091;51.432;6.880;2024-02-04T04:36:20;21.50;37.00
12060;DHT22;6091;51.432;6.880;2024-02-04T04:38:48;21.50;37.00
12060;DHT22;6091;51.432;6.880;2024-02-04T04:41:17;21.50;37.00
12060;DHT22;6091;51.432;6.880;2024-02-04T04:43:44;21.50;37.00
12060;DHT22;6091;51.432;6.880;2024-02-04T04:46:11;21.50;37.00
12060;DHT22;6091;51.432;6.880;2024-02-04T04:48:38;21.50;37.00
12060;DHT22;6091;51.432;6.880;2024-02-04T04:51:08;21.50;37.00
12060;DHT22;6091;51.432;6.880;2024-02-04T04:53:36;21.50;37.00
12060;DHT22;6091;51.432;6.880;2024-02-04T04:56:04;21.50;37.00
12060;DHT22;6091;51.432;6.880;2024-02-04T04:58:32;21.50;37.00
12060;DHT22;6091;51.432;6.880;2024-02-04T05:00:59;21.50;37.00
12060;DHT22;6091;51.432;6.880;2024-02-04T05:03:27;21.50;37.00
12060;DHT22;6091;51.432;6.880;2024-02-04T05:05:54;21.50;37.00
12060;DHT22;6091;51.432;6.880;2024-02-04T05:08:21;21.50;37.00
12060;DHT22;6091;51.432;6.880;2024-02-04T05:10:48;21.50;37.00
12060;DHT22;6091;51.432;6.880;2024-02-04T05:13:15;21.50;37.00
12060;DHT22;6091;51.432;6.880;2024-02-04T05:15:42;21.50;37.00
12060;DHT22;6091;51.432;6.880;2024-02-04T05:18:10;21.50;37.20
12060;DHT22;6091;51.432;6.880;2024-02-04T05:20:37;21.50;37.00
12060;DHT22;6091;51.432;6.880;2024-02-04T05:23:06;21.50;37.00
12060;DHT22;6091;51.432;6.880;2024-02-04T05:25:33;21.50;37.00
12060;DHT22;6091;51.432;6.880;2024-02-04T05:28:00;21.50;37.00
12060;DHT22;6091;51.432;6.880;2024-02-04T05:30:27;21.50;37.00
12060;DHT22;6091;51.432;6.880;2024-02-04T05:32:55;21.50;37.00
12060;DHT22;6091;51.432;6.880;2024-02-04T05:35:22;21.50;37.00
12060;DHT22;6091;51.432;6.880;2024-02-04T05:37:49;21.50;37.00
12060;DHT22;6091;51.432;6.880;2024-02-04T05:40:16;21.50;37.00
12060;DHT22;6091;51.432;6.880;2024-02-04T05:42:46;21.50;37.00
12060;DHT22;6091;51.432;6.880;2024-02-04T05:45:13;21.50;37.00
12060;DHT22;6091;51.432;6.880;2024-02-04T05:47:40;21.50;37.00
12060;DHT22;6091;51.432;6.880;2024-02-04T05:50:08;21.50;37.00
12060;DHT22;6091;51.432;6.880;2024-02-04T05:52:36;21.50;37.00
12060;DHT22;6091;51.432;6.880;2024-02-04T05:55:03;21.50;37.00
12060;DHT22;6091;51.432;6.880;2024-02-04T05:57:31;21.50;37.00
12060;DHT22;6091;51.432;6.880;2024-02-04T05:59:58;21.50;37.10
12060;DHT22;6091;51.432;6.880;2024-02-04T06:02:26;21.50;37.00
12060;DHT22;6091;51.432;6.880;2024-02-04T06:04:53;21.50;37.00
12060;DHT22;6091;51.432;6.880;2024-02-04T06:07:21;21.50;37.00
12060;DHT22;6091;51.432;6.880;2024-02-04T06:09:49;21.40;37.00
12060;DHT22;6091;51.432;6.880;2024-02-04T06:12:16;21.50;37.00
12060;DHT22;6091;51.432;6.880;2024-02-04T06:14:43;21.50;37.00
12060;DHT22;6091;51.432;6.880;2024-02-04T06:17:10;21.50;37.10
12060;DHT22;6091;51.432;6.880;2024-02-04T06:19:37;21.50;37.00
12060;DHT22;6091;51.432;6.880;2024-02-04T06:22:05;21.40;37.00
12060;DHT22;6091;51.432;6.880;2024-02-04T06:24:32;21.50;37.10
12060;DHT22;6091;51.432;6.880;2024-02-04T06:27:02;21.40;37.00
12060;DHT22;6091;51.432;6.880;2024-02-04T06:29:30;22.40;37.80
12060;DHT22;6091;51.432;6.880;2024-02-04T06:31:57;21.50;37.00
12060;DHT22;6091;51.432;6.880;2024-02-04T06:34:24;21.40;37.00
12060;DHT22;6091;51.432;6.880;2024-02-04T06:36:52;21.50;37.00
12060;DHT22;6091;51.432;6.880;2024-02-04T06:39:19;21.50;37.10
12060;DHT22;6091;51.432;6.880;2024-02-04T06:41:49;21.40;37.00
12060;DHT22;6091;51.432;6.880;2024-02-04T06:44:16;21.50;37.10
12060;DHT22;6091;51.432;6.880;2024-02-04T06:46:43;21.40;37.00
12060;DHT22;6091;51.432;6.880;2024-02-04T06:49:10;21.50;37.00
12060;DHT22;6091;51.432;6.880;2024-02-04T06:51:38;21.50;37.10
12060;DHT22;6091;51.432;6.880;2024-02-04T06:54:05;21.40;37.00
12060;DHT22;6091;51.432;6.880;2024-02-04T06:56:32;21.50;37.10
12060;DHT22;6091;51.432;6.880;2024-02-04T06:59:00;21.40;37.00
12060;DHT22;6091;51.432;6.880;2024-02-04T07:01:27;21.40;37.00
12060;DHT22;6091;51.432;6.880;2024-02-04T07:03:54;21.40;37.00
12060;DHT22;6091;51.432;6.880;2024-02-04T07:06:22;21.40;37.00
12060;DHT22;6091;51.432;6.880;2024-02-04T07:08:49;21.50;37.10
12060;DHT22;6091;51.432;6.880;2024-02-04T07:11:17;21.40;37.00
12060;DHT22;6091;51.432;6.880;2024-02-04T07:13:45;21.50;37.10
12060;DHT22;6091;51.432;6.880;2024-02-04T07:16:12;21.40;37.00
12060;DHT22;6091;51.432;6.880;2024-02-04T07:18:39;21.50;37.10
12060;DHT22;6091;51.432;6.880;2024-02-04T07:21:06;21.50;37.30
12060;DHT22;6091;51.432;6.880;2024-02-04T07:23:33;21.40;37.00
12060;DHT22;6091;51.432;6.880;2024-02-04T07:26:00;21.40;37.10
12060;DHT22;6091;51.432;6.880;2024-02-04T07:28:27;21.40;37.00
12060;DHT22;6091;51.432;6.880;2024-02-04T07:30:55;21.40;37.00
12060;DHT22;6091;51.432;6.880;2024-02-04T07:33:22;21.40;37.00
12060;DHT22;6091;51.432;6.880;2024-02-04T07:35:49;21.50;37.10
12060;DHT22;6091;51.432;6.880;2024-02-04T07:38:16;21.40;37.10
12060;DHT22;6091;51.432;6.880;2024-02-04T07:40:45;21.50;37.20
12060;DHT22;6091;51.432;6.880;2024-02-04T07:43:12;21.40;37.10
12060;DHT22;6091;51.432;6.880;2024-02-04T07:45:40;21.50;37.10
12060;DHT22;6091;51.432;6.880;2024-02-04T07:48:07;21.50;37.10
12060;DHT22;6091;51.432;6.880;2024-02-04T07:50:36;21.40;37.10
12060;DHT22;6091;51.432;6.880;2024-02-04T07:53:03;21.40;37.00
12060;DHT22;6091;51.432;6.880;2024-02-04T07:55:30;21.40;37.10
12060;DHT22;6091;51.432;6.880;2024-02-04T07:57:57;21.40;37.10
12060;DHT22;6091;51.432;6.880;2024-02-04T08:00:25;21.40;37.00
12060;DHT22;6091;51.432;6.880;2024-02-04T08:02:52;21.40;37.10
12060;DHT22;6091;51.432;6.880;2024-02-04T08:05:20;21.40;37.10
12060;DHT22;6091;51.432;6.880;2024-02-04T08:07:47;21.40;37.10
12060;DHT22;6091;51.432;6.880;2024-02-04T08:10:14;21.40;37.10
12060;DHT22;6091;51.432;6.880;2024-02-04T08:12:42;21.40;37.10
12060;DHT22;6091;51.432;6.880;2024-02-04T08:15:10;21.50;37.10
12060;DHT22;6091;51.432;6.880;2024-02-04T08:17:37;21.40;37.10
12060;DHT22;6091;51.432;6.880;2024-02-04T08:20:04;21.40;37.10
12060;DHT22;6091;51.432;6.880;2024-02-04T08:22:32;21.40;37.00
12060;DHT22;6091;51.432;6.880;2024-02-04T08:25:00;21.40;37.10
12060;DHT22;6091;51.432;6.880;2024-02-04T08:27:29;21.40;37.10
12060;DHT22;6091;51.432;6.880;2024-02-04T08:29:57;21.40;37.00
12060;DHT22;6091;51.432;6.880;2024-02-04T08:32:27;21.80;37.40
12060;DHT22;6091;51.432;6.880;2024-02-04T08:34:54;21.40;37.00
12060;DHT22;6091;51.432;6.880;2024-02-04T08:37:22;21.50;37.10
12060;DHT22;6091;51.432;6.880;2024-02-04T08:39:55;21.40;37.00
12060;DHT22;6091;51.432;6.880;2024-02-04T08:42:25;21.40;37.00
12060;DHT22;6091;51.432;6.880;2024-02-04T08:44:52;21.40;37.10
12060;DHT22;6091;51.432;6.880;2024-02-04T08:47:19;21.40;37.10
12060;DHT22;6091;51.432;6.880;2024-02-04T08:49:47;21.40;37.10
12060;DHT22;6091;51.432;6.880;2024-02-04T08:52:14;21.40;37.10
12060;DHT22;6091;51.432;6.880;2024-02-04T08:54:42;21.40;37.10
12060;DHT22;6091;51.432;6.880;2024-02-04T08:57:09;21.40;37.10
12060;DHT22;6091;51.432;6.880;2024-02-04T08:59:36;21.40;37.10
12060;DHT22;6091;51.432;6.880;2024-02-04T09:02:04;21.40;37.10
12060;DHT22;6091;51.432;6.880;2024-02-04T09:04:37;21.40;37.10
12060;DHT22;6091;51.432;6.880;2024-02-04T09:07:08;21.40;37.20
12060;DHT22;6091;51.432;6.880;2024-02-04T09:09:35;21.40;37.20
12060;DHT22;6091;51.432;6.880;2024-02-04T09:12:03;21.40;37.30
12060;DHT22;6091;51.432;6.880;2024-02-04T09:14:31;21.40;37.30
12060;DHT22;6091;51.432;6.880;2024-02-04T09:16:58;21.50;37.40
12060;DHT22;6091;51.432;6.880;2024-02-04T09:19:27;21.40;37.40
12060;DHT22;6091;51.432;6.880;2024-02-04T09:21:55;21.40;37.30
12060;DHT22;6091;51.432;6.880;2024-02-04T09:24:22;21.40;37.30
12060;DHT22;6091;51.432;6.880;2024-02-04T09:26:49;21.40;37.30
12060;DHT22;6091;51.432;6.880;2024-02-04T09:29:17;21.40;37.30
12060;DHT22;6091;51.432;6.880;2024-02-04T09:31:44;21.40;37.30
12060;DHT22;6091;51.432;6.880;2024-02-04T09:34:12;21.40;37.30
12060;DHT22;6091;51.432;6.880;2024-02-04T09:36:45;21.40;37.30
12060;DHT22;6091;51.432;6.880;2024-02-04T09:39:13;21.50;37.40
12060;DHT22;6091;51.432;6.880;2024-02-04T09:41:41;21.50;37.40
12060;DHT22;6091;51.432;6.880;2024-02-04T09:44:10;21.50;37.40
12060;DHT22;6091;51.432;6.880;2024-02-04T09:46:44;21.50;37.40
12060;DHT22;6091;51.432;6.880;2024-02-04T09:49:12;21.50;37.30
12060;DHT22;6091;51.432;6.880;2024-02-04T09:51:42;21.50;37.40
12060;DHT22;6091;51.432;6.880;2024-02-04T09:54:14;21.50;37.30
12060;DHT22;6091;51.432;6.880;2024-02-04T09:56:47;21.50;37.30
12060;DHT22;6091;51.432;6.880;2024-02-04T09:59:18;21.50;37.40
12060;DHT22;6091;51.432;6.880;2024-02-04T10:01:47;21.50;37.90
12060;DHT22;6091;51.432;6.880;2024-02-04T10:04:15;21.50;37.30
12060;DHT22;6091;51.432;6.880;2024-02-04T10:06:43;21.50;37.30
12060;DHT22;6091;51.432;6.880;2024-02-04T10:09:11;21.50;37.30
12060;DHT22;6091;51.432;6.880;2024-02-04T10:11:43;21.50;37.30
12060;DHT22;6091;51.432;6.880;2024-02-04T10:14:10;21.50;37.30
12060;DHT22;6091;51.432;6.880;2024-02-04T10:16:39;21.50;37.30
12060;DHT22;6091;51.432;6.880;2024-02-04T10:19:08;21.50;37.30
12060;DHT22;6091;51.432;6.880;2024-02-04T10:21:35;21.50;37.30
12060;DHT22;6091;51.432;6.880;2024-02-04T10:24:03;21.50;37.30
12060;DHT22;6091;51.432;6.880;2024-02-04T10:26:30;21.50;37.30
12060;DHT22;6091;51.432;6.880;2024-02-04T10:28:58;21.50;37.40
12060;DHT22;6091;51.432;6.880;2024-02-04T10:31:28;21.50;37.30
12060;DHT22;6091;51.432;6.880;2024-02-04T10:33:56;21.50;37.40
12060;DHT22;6091;51.432;6.880;2024-02-04T10:36:24;21.50;37.40
12060;DHT22;6091;51.432;6.880;2024-02-04T10:38:53;21.50;37.40
12060;DHT22;6091;51.432;6.880;2024-02-04T10:41:21;21.60;37.50
12060;DHT22;6091;51.432;6.880;2024-02-04T10:43:52;21.60;37.50
12060;DHT22;6091;51.432;6.880;2024-02-04T10:46:23;21.60;37.60
12060;DHT22;6091;51.432;6.880;2024-02-04T10:49:00;21.60;37.70
12060;DHT22;6091;51.432;6.880;2024-02-04T10:51:37;21.70;37.80
12060;DHT22;6091;51.432;6.880;2024-02-04T10:54:07;21.70;37.80
12060;DHT22;6091;51.432;6.880;2024-02-04T10:56:57;21.70;37.80
12060;DHT22;6091;51.432;6.880;2024-02-04T10:59:33;21.70;37.80
12060;DHT22;6091;51.432;6.880;2024-02-04T11:02:03;21.70;37.70
12060;DHT22;6091;51.432;6.880;2024-02-04T11:04:33;21.70;37.60
12060;DHT22;6091;51.432;6.880;2024-02-04T11:07:03;21.70;37.60
12060;DHT22;6091;51.432;6.880;2024-02-04T11:09:34;21.80;37.70
12060;DHT22;6091;51.432;6.880;2024-02-04T11:12:11;21.80;37.80
12060;DHT22;6091;51.432;6.880;2024-02-04T11:14:45;21.80;37.80
12060;DHT22;6091;51.432;6.880;2024-02-04T11:26:05;21.90;37.90
12060;DHT22;6091;51.432;6.880;2024-02-04T11:28:34;21.70;38.50
12060;DHT22;6091;51.432;6.880;2024-02-04T11:31:04;21.70;38.30
12060;DHT22;6091;51.432;6.880;2024-02-04T11:33:33;21.70;38.20
12060;DHT22;6091;51.432;6.880;2024-02-04T11:36:07;21.80;38.20
12060;DHT22;6091;51.432;6.880;2024-02-04T11:38:42;21.80;38.10
12060;DHT22;6091;51.432;6.880;2024-02-04T11:41:20;21.90;38.10
12060;DHT22;6091;51.432;6.880;2024-02-04T11:43:53;21.90;38.00
12060;DHT22;6091;51.432;6.880;2024-02-04T11:46:30;21.90;38.10
12060;DHT22;6091;51.432;6.880;2024-02-04T11:49:00;21.90;38.10
12060;DHT22;6091;51.432;6.880;2024-02-04T11:51:29;21.60;37.80
12060;DHT22;6091;51.432;6.880;2024-02-04T11:54:00;21.90;38.20
12060;DHT22;6091;51.432;6.880;2024-02-04T11:56:32;21.90;37.90
12060;DHT22;6091;51.432;6.880;2024-02-04T11:59:00;21.90;38.00
12060;DHT22;6091;51.432;6.880;2024-02-04T12:01:33;21.90;37.90
12060;DHT22;6091;51.432;6.880;2024-02-04T12:04:12;21.90;37.90
12060;DHT22;6091;51.432;6.880;2024-02-04T12:06:41;21.90;38.00
12060;DHT22;6091;51.432;6.880;2024-02-04T12:09:10;21.90;37.90
12060;DHT22;6091;51.432;6.880;2024-02-04T12:11:40;21.90;37.90
12060;DHT22;6091;51.432;6.880;2024-02-04T12:14:10;21.90;37.90
12060;DHT22;6091;51.432;6.880;2024-02-04T12:16:40;21.90;37.90
12060;DHT22;6091;51.432;6.880;2024-02-04T12:19:12;21.90;37.90
12060;DHT22;6091;51.432;6.880;2024-02-04T12:21:40;22.20;38.10
12060;DHT22;6091;51.432;6.880;2024-02-04T12:24:08;21.90;37.80
12060;DHT22;6091;51.432;6.880;2024-02-04T12:26:39;21.90;37.80
12060;DHT22;6091;51.432;6.880;2024-02-04T12:29:07;21.90;37.80
12060;DHT22;6091;51.432;6.880;2024-02-04T12:31:35;21.90;37.80
12060;DHT22;6091;51.432;6.880;2024-02-04T12:34:12;21.90;37.80
12060;DHT22;6091;51.432;6.880;2024-02-04T12:36:40;21.90;37.80
12060;DHT22;6091;51.432;6.880;2024-02-04T12:39:11;21.90;37.90
12060;DHT22;6091;51.432;6.880;2024-02-04T12:41:39;21.90;37.80
12060;DHT22;6091;51.432;6.880;2024-02-04T12:44:07;21.90;37.80
12060;DHT22;6091;51.432;6.880;2024-02-04T12:46:35;21.90;37.80
12060;DHT22;6091;51.432;6.880;2024-02-04T12:49:06;21.90;37.80
12060;DHT22;6091;51.432;6.880;2024-02-04T12:51:35;21.90;37.80
12060;DHT22;6091;51.432;6.880;2024-02-04T12:54:09;21.90;37.80
12060;DHT22;6091;51.432;6.880;2024-02-04T12:56:46;21.90;37.80
12060;DHT22;6091;51.432;6.880;2024-02-04T13:01:58;24.10;39.70
12060;DHT22;6091;51.432;6.880;2024-02-04T13:04:34;21.90;37.80
12060;DHT22;6091;51.432;6.880;2024-02-04T13:07:09;21.90;37.80
12060;DHT22;6091;51.432;6.880;2024-02-04T13:09:45;21.90;37.80
12060;DHT22;6091;51.432;6.880;2024-02-04T13:12:14;21.90;37.80
12060;DHT22;6091;51.432;6.880;2024-02-04T13:14:44;21.90;37.80
12060;DHT22;6091;51.432;6.880;2024-02-04T13:17:12;21.90;37.80
12060;DHT22;6091;51.432;6.880;2024-02-04T13:19:41;21.90;38.50
12060;DHT22;6091;51.432;6.880;2024-02-04T13:22:11;21.90;37.90
12060;DHT22;6091;51.432;6.880;2024-02-04T13:24:41;21.90;37.90
12060;DHT22;6091;51.432;6.880;2024-02-04T13:27:08;21.80;37.90
12060;DHT22;6091;51.432;6.880;2024-02-04T13:29:36;21.90;38.00
12060;DHT22;6091;51.432;6.880;2024-02-04T13:32:06;21.90;38.10
12060;DHT22;6091;51.432;6.880;2024-02-04T13:34:34;21.90;38.20
12060;DHT22;6091;51.432;6.880;2024-02-04T13:37:02;21.90;38.30
12060;DHT22;6091;51.432;6.880;2024-02-04T13:39:30;21.90;38.50
12060;DHT22;6091;51.432;6.880;2024-02-04T13:41:58;21.90;38.60
12060;DHT22;6091;51.432;6.880;2024-02-04T13:44:25;22.00;38.80
12060;DHT22;6091;51.432;6.880;2024-02-04T13:46:52;22.10;38.80
12060;DHT22;6091;51.432;6.880;2024-02-04T13:49:20;22.20;38.90
12060;DHT22;6091;51.432;6.880;2024-02-04T13:51:48;22.30;38.90
12060;DHT22;6091;51.432;6.880;2024-02-04T13:54:15;22.50;39.00
12060;DHT22;6091;51.432;6.880;2024-02-04T13:56:45;22.70;39.00
12060;DHT22;6091;51.432;6.880;2024-02-04T13:59:14;22.80;39.00
12060;DHT22;6091;51.432;6.880;2024-02-04T14:01:42;23.00;39.00
12060;DHT22;6091;51.432;6.880;2024-02-04T14:04:11;23.10;38.90
12060;DHT22;6091;51.432;6.880;2024-02-04T14:06:38;23.30;38.90
12060;DHT22;6091;51.432;6.880;2024-02-04T14:09:07;23.40;38.90
12060;DHT22;6091;51.432;6.880;2024-02-04T14:11:35;23.60;38.80
12060;DHT22;6091;51.432;6.880;2024-02-04T14:14:03;23.70;38.80
12060;DHT22;6091;51.432;6.880;2024-02-04T14:16:31;23.90;38.90
12060;DHT22;6091;51.432;6.880;2024-02-04T14:19:00;24.00;38.80
12060;DHT22;6091;51.432;6.880;2024-02-04T14:21:28;24.20;38.70
12060;DHT22;6091;51.432;6.880;2024-02-04T14:23:56;24.30;38.60
12060;DHT22;6091;51.432;6.880;2024-02-04T14:26:24;24.40;38.50
12060;DHT22;6091;51.432;6.880;2024-02-04T14:28:52;24.50;38.40
12060;DHT22;6091;51.432;6.880;2024-02-04T14:31:21;24.70;38.40
12060;DHT22;6091;51.432;6.880;2024-02-04T14:33:49;24.80;38.30
12060;DHT22;6091;51.432;6.880;2024-02-04T14:36:17;24.90;38.20
12060;DHT22;6091;51.432;6.880;2024-02-04T14:38:46;25.00;38.10
12060;DHT22;6091;51.432;6.880;2024-02-04T14:41:15;25.10;38.10
12060;DHT22;6091;51.432;6.880;2024-02-04T14:43:44;25.20;38.00
12060;DHT22;6091;51.432;6.880;2024-02-04T14:46:12;25.20;37.80
12060;DHT22;6091;51.432;6.880;2024-02-04T14:48:41;25.30;37.80
12060;DHT22;6091;51.432;6.880;2024-02-04T14:51:10;25.40;37.70
12060;DHT22;6091;51.432;6.880;2024-02-04T14:53:38;25.40;37.60
12060;DHT22;6091;51.432;6.880;2024-02-04T14:56:06;25.50;37.50
12060;DHT22;6091;51.432;6.880;2024-02-04T14:58:38;25.60;37.50
12060;DHT22;6091;51.432;6.880;2024-02-04T15:01:06;25.60;37.20
12060;DHT22;6091;51.432;6.880;2024-02-04T15:03:34;25.70;37.30
12060;DHT22;6091;51.432;6.880;2024-02-04T15:06:02;25.80;37.30
12060;DHT22;6091;51.432;6.880;2024-02-04T15:08:31;25.80;37.20
12060;DHT22;6091;51.432;6.880;2024-02-04T15:10:59;25.90;37.10
12060;DHT22;6091;51.432;6.880;2024-02-04T15:13:27;25.90;37.00
12060;DHT22;6091;51.432;6.880;2024-02-04T15:16:00;26.00;37.00
12060;DHT22;6091;51.432;6.880;2024-02-04T15:18:31;26.00;36.90
12060;DHT22;6091;51.432;6.880;2024-02-04T15:21:02;26.10;36.80
12060;DHT22;6091;51.432;6.880;2024-02-04T15:23:31;26.10;36.70
12060;DHT22;6091;51.432;6.880;2024-02-04T15:26:00;26.10;36.70
12060;DHT22;6091;51.432;6.880;2024-02-04T15:28:30;26.10;36.60
12060;DHT22;6091;51.432;6.880;2024-02-04T15:31:00;26.20;36.60
12060;DHT22;6091;51.432;6.880;2024-02-04T15:33:28;26.20;36.60
12060;DHT22;6091;51.432;6.880;2024-02-04T15:35:56;26.30;36.60
12060;DHT22;6091;51.432;6.880;2024-02-04T15:38:25;26.30;36.50
12060;DHT22;6091;51.432;6.880;2024-02-04T15:40:56;26.30;36.40
12060;DHT22;6091;51.432;6.880;2024-02-04T15:43:24;26.30;36.30
12060;DHT22;6091;51.432;6.880;2024-02-04T15:45:54;27.40;37.00
12060;DHT22;6091;51.432;6.880;2024-02-04T15:48:28;26.40;36.20
12060;DHT22;6091;51.432;6.880;2024-02-04T15:50:58;26.50;36.30
12060;DHT22;6091;51.432;6.880;2024-02-04T15:53:27;26.50;36.30
12060;DHT22;6091;51.432;6.880;2024-02-04T15:55:55;26.60;36.20
12060;DHT22;6091;51.432;6.880;2024-02-04T15:58:26;26.60;36.20
12060;DHT22;6091;51.432;6.880;2024-02-04T16:00:59;26.60;36.10
12060;DHT22;6091;51.432;6.880;2024-02-04T16:03:37;26.60;36.00
12060;DHT22;6091;51.432;6.880;2024-02-04T16:06:07;26.60;36.00
12060;DHT22;6091;51.432;6.880;2024-02-04T16:08:37;26.60;35.90
12060;DHT22;6091;51.432;6.880;2024-02-04T16:11:15;26.70;36.00